Time;durP1;ratioP1;P1;durP2;ratioP2;P2;SDS_P1;SDS_P2;PMS_P1;PMS_P2;Temp;Humidity;BMP_temperature;BMP_pressure;BME280_temperature;BME280_humidity;BME280_pressure;Samples;Min_cycle;Max_cycle;Signal;HPM_P1;HPM_P2
2022/12/20 00:01:28;;;;;;;;;;;;;;;-144.99;100.00;52497.00;5006554;28;19933;-74
2022/12/20 00:03:55;;;;;;;;;;;;;;;-144.99;100.00;52525.56;5006499;28;19925;-76
2022/12/20 00:06:22;;;;;;;;;;;;;;;-144.99;100.00;52480.72;5006750;28;19945;-74
2022/12/20 00:08:54;;;;;;;;;;;;;;;-144.99;100.00;52468.47;5006465;28;19960;-77
2022/12/20 00:11:20;;;;;;;;;;;;;;;-144.99;100.00;52545.94;5014639;23;19968;-77
2022/12/20 00:13:47;;;;;;;;;;;;;;;-144.99;100.00;52513.31;5012407;28;19956;-77
2022/12/20 00:16:14;;;;;;;;;;;;;;;-144.99;100.00;52529.63;5008376;28;20289;-76
2022/12/20 00:18:42;;;;;;;;;;;;;;;-144.99;100.00;52533.69;5008990;28;20028;-77
2022/12/20 00:21:09;;;;;;;;;;;;;;;-144.99;100.00;52519.44;5009100;28;19945;-78
2022/12/20 00:23:36;;;;;;;;;;;;;;;-144.99;100.00;52488.84;5008844;28;19930;-76
2022/12/20 00:26:06;;;;;;;;;;;;;;;-144.99;100.00;52545.94;5009069;28;19936;-76
2022/12/20 00:28:32;;;;;;;;;;;;;;;-144.99;100.00;52517.41;5009178;28;19929;-76
2022/12/20 00:30:59;;;;;;;;;;;;;;;-144.99;100.00;52521.47;5007983;28;19950;-77
2022/12/20 00:33:26;;;;;;;;;;;;;;;-144.99;100.00;52511.28;5008396;28;19961;-78
2022/12/20 00:35:54;;;;;;;;;;;;;;;-144.99;100.00;52521.47;5008428;28;19990;-77
2022/12/20 00:38:21;;;;;;;;;;;;;;;-144.99;100.00;52570.38;5008739;28;19929;-77
2022/12/20 00:40:47;;;;;;;;;;;;;;;-144.99;100.00;52507.19;5008296;28;19937;-78
2022/12/20 00:43:15;;;;;;;;;;;;;;;-144.99;100.00;52521.47;5008375;28;20323;-78
2022/12/20 00:45:42;;;;;;;;;;;;;;;-144.99;100.00;52529.63;5007526;28;20322;-77
2022/12/20 00:48:10;;;;;;;;;;;;;;;-144.99;100.00;52525.56;5008406;28;22494;-78
2022/12/20 00:50:37;;;;;;;;;;;;;;;-144.99;100.00;52505.16;5009145;28;19984;-78
2022/12/20 00:53:04;;;;;;;;;;;;;;;-144.99;100.00;52529.63;5003577;28;19925;-77
2022/12/20 00:55:30;;;;;;;;;;;;;;;-144.99;100.00;52531.66;5006886;28;20327;-76
2022/12/20 00:57:57;;;;;;;;;;;;;;;-144.99;100.00;52513.31;5008441;28;19936;-75
2022/12/20 01:00:25;;;;;;;;;;;;;;;-144.99;100.00;52541.84;5007694;28;19941;-76
2022/12/20 01:02:51;;;;;;;;;;;;;;;-144.99;100.00;52525.56;5008056;28;20057;-76
2022/12/20 01:05:18;;;;;;;;;;;;;;;-144.99;100.00;52531.66;5008819;28;19925;-77
2022/12/20 01:07:45;;;;;;;;;;;;;;;-144.99;100.00;52543.91;5008735;28;19968;-76
2022/12/20 01:10:12;;;;;;;;;;;;;;;-144.99;100.00;52517.41;5008760;28;19970;-76
2022/12/20 01:12:38;;;;;;;;;;;;;;;-144.99;100.00;52533.69;5020815;28;19974;-77
2022/12/20 01:15:06;;;;;;;;;;;;;;;-144.99;100.00;52505.16;5029751;28;19988;-77
2022/12/20 01:17:34;;;;;;;;;;;;;;;-144.99;100.00;52505.16;5029993;28;19925;-76
2022/12/20 01:20:01;;;;;;;;;;;;;;;-144.99;100.00;52550.00;5029611;28;19960;-76
2022/12/20 01:22:27;;;;;;;;;;;;;;;-144.99;100.00;52529.63;5026989;28;19926;-76
2022/12/20 01:24:54;;;;;;;;;;;;;;;-144.99;100.00;52525.56;5028298;28;20168;-76
2022/12/20 01:27:21;;;;;;;;;;;;;;;-144.99;100.00;52494.97;5027790;28;19929;-76
2022/12/20 01:29:47;;;;;;;;;;;;;;;-144.99;100.00;52541.84;5025457;28;19941;-76
2022/12/20 01:32:14;;;;;;;;;;;;;;;-144.99;100.00;52519.44;5024162;28;19931;-77
2022/12/20 01:34:42;;;;;;;;;;;;;;;-144.99;100.00;52505.16;5023863;28;19937;-75
2022/12/20 01:37:09;;;;;;;;;;;;;;;-144.99;100.00;52509.25;5025778;28;19925;-77
2022/12/20 01:39:35;;;;;;;;;;;;;;;-144.99;100.00;52472.56;5011325;28;19926;-77
2022/12/20 01:42:02;;;;;;;;;;;;;;;-144.99;100.00;52529.63;5008438;28;19933;-76
2022/12/20 01:44:47;;;;;;;;;;;;;;;-144.99;100.00;52517.41;5007866;28;19925;-76
2022/12/20 01:47:13;;;;;;;;;;;;;;;-144.99;100.00;52505.16;5007817;28;19929;-76
2022/12/20 01:49:43;;;;;;;;;;;;;;;-144.99;100.00;52509.25;5007907;28;19932;-76
2022/12/20 01:52:12;;;;;;;;;;;;;;;-144.99;100.00;52558.16;5007598;28;19978;-75
2022/12/20 01:54:41;;;;;;;;;;;;;;;-144.99;100.00;52529.63;4999749;28;19972;-78
2022/12/20 01:57:11;;;;;;;;;;;;;;;-144.99;100.00;52505.16;5006031;28;19930;-76
2022/12/20 01:59:39;;;;;;;;;;;;;;;-144.99;100.00;52537.78;5006483;28;19941;-76
2022/12/20 02:02:07;;;;;;;;;;;;;;;-144.99;100.00;52529.63;5004921;28;19926;-78
2022/12/20 02:04:34;;;;;;;;;;;;;;;-144.99;100.00;52513.31;5007944;28;20073;-76
2022/12/20 02:07:01;;;;;;;;;;;;;;;-144.99;100.00;52492.94;5008380;28;20381;-76
2022/12/20 02:09:30;;;;;;;;;;;;;;;-144.99;100.00;52513.31;5008005;28;19947;-76
2022/12/20 02:12:05;;;;;;;;;;;;;;;-144.99;100.00;52509.25;5007759;28;19929;-76
2022/12/20 02:14:36;;;;;;;;;;;;;;;-144.99;100.00;52505.16;5006842;28;19972;-76
2022/12/20 02:17:09;;;;;;;;;;;;;;;-144.99;100.00;52523.50;5008342;28;19932;-76
2022/12/20 02:19:51;;;;;;;;;;;;;;;-144.99;100.00;52525.56;5008198;28;19991;-76
2022/12/20 02:22:25;;;;;;;;;;;;;;;-144.99;100.00;52539.81;4995665;28;19969;-76
2022/12/20 02:25:07;;;;;;;;;;;;;;;-144.99;100.00;52480.72;5008035;28;20000;-77
2022/12/20 02:27:46;;;;;;;;;;;;;;;-144.99;100.00;52525.56;5008899;28;19970;-76
2022/12/20 02:30:18;;;;;;;;;;;;;;;-144.99;100.00;52517.41;5006954;28;19929;-76
2022/12/20 02:32:49;;;;;;;;;;;;;;;-144.99;100.00;52492.94;5008222;28;19929;-77
2022/12/20 02:35:21;;;;;;;;;;;;;;;-144.99;100.00;52543.91;5008910;28;19943;-77
2022/12/20 02:37:49;;;;;;;;;;;;;;;-144.99;100.00;52480.72;5012203;28;19952;-77
2022/12/20 02:40:17;;;;;;;;;;;;;;;-144.99;100.00;52521.47;5010990;28;19929;-77
2022/12/20 02:42:44;;;;;;;;;;;;;;;-144.99;100.00;52525.56;5011266;28;19984;-77
2022/12/20 02:45:16;;;;;;;;;;;;;;;-144.99;100.00;52586.69;5009884;28;19929;-77
2022/12/20 02:47:48;;;;;;;;;;;;;;;-144.99;100.00;52503.13;5011695;28;19929;-77
2022/12/20 02:50:17;;;;;;;;;;;;;;;-144.99;100.00;52537.78;5011496;28;19947;-77
2022/12/20 02:52:44;;;;;;;;;;;;;;;-144.99;100.00;52492.94;5006357;28;19962;-76
2022/12/20 02:55:11;;;;;;;;;;;;;;;-144.99;100.00;52513.31;5010075;28;19933;-77
2022/12/20 02:57:42;;;;;;;;;;;;;;;-144.99;100.00;52547.97;5010035;28;20424;-77
2022/12/20 03:00:11;;;;;;;;;;;;;;;-144.99;100.00;52494.97;5009235;28;19929;-76
2022/12/20 03:05:20;;;;;;;;;;;;;;;-144.99;100.00;52482.75;5010288;28;19933;-77
2022/12/20 03:07:46;;;;;;;;;;;;;;;-144.99;100.00;52521.47;5010688;28;19933;-77
2022/12/20 03:10:13;;;;;;;;;;;;;;;-144.99;100.00;52517.41;5010712;28;20394;-77
2022/12/20 03:12:40;;;;;;;;;;;;;;;-144.99;100.00;52492.94;5009580;28;19933;-77
2022/12/20 03:15:08;;;;;;;;;;;;;;;-144.99;100.00;52501.09;5009775;28;20351;-76
2022/12/20 03:17:34;;;;;;;;;;;;;;;-144.99;100.00;52505.16;5010566;28;19968;-77
2022/12/20 03:20:01;;;;;;;;;;;;;;;-144.99;100.00;52509.25;5011017;28;19970;-77
2022/12/20 03:22:30;;;;;;;;;;;;;;;-144.99;100.00;52499.06;5009731;28;19933;-77
2022/12/20 03:24:57;;;;;;;;;;;;;;;-144.99;100.00;52478.66;5010575;28;20304;-77
2022/12/20 03:27:24;;;;;;;;;;;;;;;-144.99;100.00;52513.31;5010699;28;20196;-76
2022/12/20 03:29:51;;;;;;;;;;;;;;;-144.99;100.00;52523.50;5009462;28;19929;-76
2022/12/20 03:32:18;;;;;;;;;;;;;;;-144.99;100.00;52513.31;5010433;28;19929;-76
2022/12/20 03:34:44;;;;;;;;;;;;;;;-144.99;100.00;52521.47;5011112;28;19933;-77
2022/12/20 03:37:11;;;;;;;;;;;;;;;-144.99;100.00;52537.78;5010455;28;20050;-77
2022/12/20 03:39:39;;;;;;;;;;;;;;;-144.99;100.00;52511.28;5010354;28;19925;-76
2022/12/20 03:42:05;;;;;;;;;;;;;;;-144.99;100.00;52558.16;5009697;28;19926;-77
2022/12/20 03:44:32;;;;;;;;;;;;;;;-144.99;100.00;52505.16;5009191;28;19929;-77
2022/12/20 03:46:59;;;;;;;;;;;;;;;-144.99;100.00;52558.16;5010089;28;20332;-77
2022/12/20 03:49:26;;;;;;;;;;;;;;;-144.99;100.00;52566.31;5010534;28;19926;-76
2022/12/20 03:51:53;;;;;;;;;;;;;;;-144.99;100.00;52517.41;5008377;28;20557;-77
2022/12/20 03:54:20;;;;;;;;;;;;;;;-144.99;100.00;52505.16;5008231;28;19925;-78
2022/12/20 03:56:48;;;;;;;;;;;;;;;-144.99;100.00;52488.84;5009525;28;19933;-77
2022/12/20 03:59:14;;;;;;;;;;;;;;;-144.99;100.00;52533.69;5007799;28;19945;-77
2022/12/20 04:01:41;;;;;;;;;;;;;;;-144.99;100.00;52509.25;5009310;28;19963;-76
2022/12/20 04:04:10;;;;;;;;;;;;;;;-144.99;100.00;52513.31;5009892;28;20047;-77
2022/12/20 04:06:36;;;;;;;;;;;;;;;-144.99;100.00;52529.63;5010317;28;19951;-75
2022/12/20 04:09:03;;;;;;;;;;;;;;;-144.99;100.00;52511.28;5009751;28;19925;-77
2022/12/20 04:11:30;;;;;;;;;;;;;;;-144.99;100.00;52505.16;5009660;28;20363;-76
2022/12/20 04:13:57;;;;;;;;;;;;;;;-144.99;100.00;52521.47;5010116;28;19926;-76
2022/12/20 04:16:25;;;;;;;;;;;;;;;-144.99;100.00;52503.13;5009982;28;19974;-76
2022/12/20 04:18:51;;;;;;;;;;;;;;;-144.99;100.00;52554.09;5011410;28;19943;-76
2022/12/20 04:21:21;;;;;;;;;;;;;;;-144.99;100.00;52547.97;5010772;28;20288;-76
2022/12/20 04:23:48;;;;;;;;;;;;;;;-144.99;100.00;52525.56;5012248;28;19948;-78
2022/12/20 04:26:15;;;;;;;;;;;;;;;-144.99;100.00;52525.56;5027675;28;20000;-77
2022/12/20 04:28:41;;;;;;;;;;;;;;;-144.99;100.00;52501.09;5025963;28;20071;-77
2022/12/20 04:31:09;;;;;;;;;;;;;;;-144.99;100.00;52523.50;5022446;28;19987;-76
2022/12/20 04:33:36;;;;;;;;;;;;;;;-144.99;100.00;52537.78;5018625;28;19944;-76
2022/12/20 04:36:03;;;;;;;;;;;;;;;-144.99;100.00;52456.25;5009791;28;20297;-76
2022/12/20 04:38:29;;;;;;;;;;;;;;;-144.99;100.00;52509.25;5010181;28;19929;-76
2022/12/20 04:40:56;;;;;;;;;;;;;;;-144.99;100.00;52554.09;5009401;28;19944;-76
2022/12/20 04:43:23;;;;;;;;;;;;;;;-144.99;100.00;52513.31;5009200;28;20015;-76
2022/12/20 04:45:51;;;;;;;;;;;;;;;-144.99;100.00;52529.63;5008841;28;19954;-77
2022/12/20 04:48:20;;;;;;;;;;;;;;;-144.99;100.00;52525.56;5009876;28;20431;-76
2022/12/20 04:50:47;;;;;;;;;;;;;;;-144.99;100.00;52517.41;5009630;28;19964;-76
2022/12/20 04:55:58;;;;;;;;;;;;;;;-144.99;100.00;52501.09;5009191;28;19947;-76
2022/12/20 04:58:24;;;;;;;;;;;;;;;-144.99;100.00;52554.09;5008823;28;19929;-77
2022/12/20 05:00:52;;;;;;;;;;;;;;;-144.99;100.00;52517.41;5007874;28;19967;-77
2022/12/20 05:03:20;;;;;;;;;;;;;;;-144.99;100.00;52529.63;5009369;28;19947;-78
2022/12/20 05:05:47;;;;;;;;;;;;;;;-144.99;100.00;52511.28;5009950;28;19944;-77
2022/12/20 05:08:13;;;;;;;;;;;;;;;-144.99;100.00;52525.56;5010363;28;19971;-78
2022/12/20 05:10:40;;;;;;;;;;;;;;;-144.99;100.00;52505.16;5009589;28;20431;-77
2022/12/20 05:13:06;;;;;;;;;;;;;;;-144.99;100.00;52541.84;5009328;28;20026;-77
2022/12/20 05:15:33;;;;;;;;;;;;;;;-144.99;100.00;52558.16;5008540;28;20520;-77
2022/12/20 05:18:00;;;;;;;;;;;;;;;-144.99;100.00;52533.69;5009588;28;19933;-77
2022/12/20 05:20:29;;;;;;;;;;;;;;;-144.99;100.00;52513.31;5009679;28;19952;-77
2022/12/20 05:28:30;;;;;;;;;;;;;;;-144.99;100.00;52541.84;4989117;28;19981;-78
2022/12/20 05:30:57;;;;;;;;;;;;;;;-144.99;100.00;52511.28;5005072;28;19937;-77
2022/12/20 05:33:23;;;;;;;;;;;;;;;-144.99;100.00;52523.50;5008086;28;20331;-78
2022/12/20 05:35:51;;;;;;;;;;;;;;;-144.99;100.00;52521.47;5008834;28;19963;-77
2022/12/20 05:38:18;;;;;;;;;;;;;;;-144.99;100.00;52570.38;5008588;28;19968;-77
2022/12/20 05:40:47;;;;;;;;;;;;;;;-144.99;100.00;52578.53;5009336;28;19929;-77
2022/12/20 05:43:14;;;;;;;;;;;;;;;-144.99;100.00;52537.78;5007710;28;19976;-77
2022/12/20 05:45:40;;;;;;;;;;;;;;;-144.99;100.00;52517.41;5007273;28;19926;-77
2022/12/20 05:48:07;;;;;;;;;;;;;;;-144.99;100.00;52488.84;5008282;28;19944;-77
2022/12/20 05:50:34;;;;;;;;;;;;;;;-144.99;100.00;52497.00;5008742;28;19955;-77
2022/12/20 05:53:02;;;;;;;;;;;;;;;-144.99;100.00;52521.47;5007850;28;19969;-77
2022/12/20 05:55:29;;;;;;;;;;;;;;;-144.99;100.00;52560.19;5007851;28;19932;-77
2022/12/20 05:57:56;;;;;;;;;;;;;;;-144.99;100.00;52545.94;5008382;28;20011;-76
2022/12/20 06:00:23;;;;;;;;;;;;;;;-144.99;100.00;52525.56;5006821;28;20523;-77
2022/12/20 06:02:49;;;;;;;;;;;;;;;-144.99;100.00;52554.09;5008245;28;19930;-78
2022/12/20 06:05:16;;;;;;;;;;;;;;;-144.99;100.00;52547.97;5008824;28;19966;-79
2022/12/20 06:07:43;;;;;;;;;;;;;;;-144.99;100.00;52529.63;5008537;28;19951;-78
2022/12/20 06:10:11;;;;;;;;;;;;;;;-144.99;100.00;52533.69;5009179;28;19930;-78
2022/12/20 06:12:38;;;;;;;;;;;;;;;-144.99;100.00;52529.63;5026629;23;19961;-70
2022/12/20 06:15:05;;;;;;;;;;;;;;;-144.99;100.00;52517.41;5011743;28;20118;-70
2022/12/20 06:17:31;;;;;;;;;;;;;;;-144.99;100.00;52566.31;5011920;28;19999;-71
2022/12/20 06:19:58;;;;;;;;;;;;;;;-144.99;100.00;52537.78;5001086;28;20022;-70
2022/12/20 06:22:25;;;;;;;;;;;;;;;-144.99;100.00;52515.34;5004727;28;19933;-70
2022/12/20 06:24:51;;;;;;;;;;;;;;;-144.99;100.00;52507.19;4992101;28;20400;-71
2022/12/20 06:27:21;;;;;;;;;;;;;;;-144.99;100.00;52511.28;4993985;28;19945;-70
2022/12/20 06:29:50;;;;;;;;;;;;;;;-144.99;100.00;52568.34;5011679;28;19968;-71
2022/12/20 06:32:17;;;;;;;;;;;;;;;-144.99;100.00;52533.69;5008894;28;20288;-71
2022/12/20 06:34:44;;;;;;;;;;;;;;;-144.99;100.00;52543.91;4992016;28;19999;-71
2022/12/20 06:37:10;;;;;;;;;;;;;;;-144.99;100.00;52517.41;4993124;28;19956;-72
2022/12/20 06:39:37;;;;;;;;;;;;;;;-144.99;100.00;52578.53;5011129;28;19967;-70
2022/12/20 06:42:03;;;;;;;;;;;;;;;-144.99;100.00;52497.00;4996912;28;19930;-70
2022/12/20 06:44:31;;;;;;;;;;;;;;;-144.99;100.00;52539.81;4991476;28;19951;-71
2022/12/20 06:46:58;;;;;;;;;;;;;;;-144.99;100.00;52574.47;4993656;28;20502;-70
2022/12/20 06:49:25;;;;;;;;;;;;;;;-144.99;100.00;52501.09;5011336;28;19926;-71
2022/12/20 06:51:51;;;;;;;;;;;;;;;-144.99;100.00;52503.13;5009734;28;20132;-70
2022/12/20 06:54:18;;;;;;;;;;;;;;;-144.99;100.00;52525.56;5000180;28;19959;-70
2022/12/20 06:56:44;;;;;;;;;;;;;;;-144.99;100.00;52523.50;4995662;28;19933;-71
2022/12/20 06:59:11;;;;;;;;;;;;;;;-144.99;100.00;52541.84;4989885;28;19925;-70
2022/12/20 07:01:39;;;;;;;;;;;;;;;-144.99;100.00;52525.56;4997482;28;19932;-70
2022/12/20 07:04:05;;;;;;;;;;;;;;;-144.99;100.00;52503.13;5001049;28;20044;-70
2022/12/20 07:06:32;;;;;;;;;;;;;;;-144.99;100.00;52521.47;4991365;28;20341;-70
2022/12/20 07:08:58;;;;;;;;;;;;;;;-144.99;100.00;52529.63;4991127;28;19925;-71
2022/12/20 07:11:25;;;;;;;;;;;;;;;-144.99;100.00;52525.56;5008204;28;20011;-70
2022/12/20 07:13:55;;;;;;;;;;;;;;;-144.99;100.00;52545.94;5002281;28;20030;-69
2022/12/20 07:16:21;;;;;;;;;;;;;;;-144.99;100.00;52537.78;4992395;28;19955;-70
2022/12/20 07:18:51;;;;;;;;;;;;;;;-144.99;100.00;52521.47;4991226;28;20051;-70
2022/12/20 07:21:18;;;;;;;;;;;;;;;-144.99;100.00;52529.63;5003832;28;19933;-70
2022/12/20 07:23:45;;;;;;;;;;;;;;;-144.99;100.00;52525.56;4990815;28;19992;-70
2022/12/20 07:26:11;;;;;;;;;;;;;;;-144.99;100.00;52550.00;4991128;28;20385;-71
2022/12/20 07:28:38;;;;;;;;;;;;;;;-144.99;100.00;52533.69;5003101;28;20050;-71
2022/12/20 07:31:05;;;;;;;;;;;;;;;-144.99;100.00;52513.31;4998353;28;20382;-70
2022/12/20 07:33:32;;;;;;;;;;;;;;;-144.99;100.00;52566.31;4998408;28;19956;-71
2022/12/20 07:36:01;;;;;;;;;;;;;;;-144.99;100.00;52515.34;4991205;28;19979;-70
2022/12/20 07:38:28;;;;;;;;;;;;;;;-144.99;100.00;52505.16;4990948;28;20019;-71
2022/12/20 07:40:55;;;;;;;;;;;;;;;-144.99;100.00;52527.59;4990821;28;19969;-71
2022/12/20 07:43:22;;;;;;;;;;;;;;;-144.99;100.00;52529.63;4990485;28;19946;-72
2022/12/20 07:45:48;;;;;;;;;;;;;;;-144.99;100.00;52541.84;5009149;28;19948;-71
2022/12/20 07:48:15;;;;;;;;;;;;;;;-144.99;100.00;52490.91;4997944;28;19955;-71
2022/12/20 07:50:41;;;;;;;;;;;;;;;-144.99;100.00;52507.19;4990612;28;19949;-71
2022/12/20 07:53:10;;;;;;;;;;;;;;;-144.99;100.00;52525.56;4990429;28;19944;-71
2022/12/20 07:55:38;;;;;;;;;;;;;;;-144.99;100.00;52521.47;4977713;28;20006;-71
2022/12/20 07:58:06;;;;;;;;;;;;;;;-144.99;100.00;52509.25;4990204;28;19926;-71
2022/12/20 08:00:33;;;;;;;;;;;;;;;-144.99;100.00;52558.16;4993352;28;20049;-71
2022/12/20 08:03:02;;;;;;;;;;;;;;;-144.99;100.00;52501.09;5011154;28;19994;-71
2022/12/20 08:05:29;;;;;;;;;;;;;;;-144.99;100.00;52505.16;4998856;28;19950;-71
2022/12/20 08:07:58;;;;;;;;;;;;;;;-144.99;100.00;52554.09;4996108;28;19945;-71
2022/12/20 08:10:27;;;;;;;;;;;;;;;-144.99;100.00;52513.31;4990607;28;20397;-71
2022/12/20 08:12:54;;;;;;;;;;;;;;;-144.99;100.00;52494.97;4990313;28;20056;-71
2022/12/20 08:15:21;;;;;;;;;;;;;;;-144.99;100.00;52497.00;4999558;28;19955;-71
2022/12/20 08:17:48;;;;;;;;;;;;;;;-144.99;100.00;52513.31;5007368;28;19930;-70
2022/12/20 08:20:15;;;;;;;;;;;;;;;-144.99;100.00;52521.47;4990199;28;19992;-72
2022/12/20 08:22:41;;;;;;;;;;;;;;;-144.99;100.00;52529.63;4989781;28;19963;-71
2022/12/20 08:25:08;;;;;;;;;;;;;;;-144.99;100.00;52509.25;4989938;28;19976;-71
2022/12/20 08:27:36;;;;;;;;;;;;;;;-144.99;100.00;52509.25;4990282;28;20395;-72
2022/12/20 08:30:03;;;;;;;;;;;;;;;-144.99;100.00;52505.16;5000334;28;19995;-71
2022/12/20 08:32:29;;;;;;;;;;;;;;;-144.99;100.00;52484.78;4991957;28;19991;-71
2022/12/20 08:34:56;;;;;;;;;;;;;;;-144.99;100.00;52513.31;4989908;28;19941;-71
2022/12/20 08:37:23;;;;;;;;;;;;;;;-144.99;100.00;52550.00;5005574;28;19951;-71
2022/12/20 08:39:49;;;;;;;;;;;;;;;-144.99;100.00;52574.47;4999725;28;19964;-73
2022/12/20 08:42:16;;;;;;;;;;;;;;;-144.99;100.00;52513.31;5005553;28;20413;-71
2022/12/20 08:44:44;;;;;;;;;;;;;;;-144.99;100.00;52521.47;5009104;28;20444;-71
2022/12/20 08:47:10;;;;;;;;;;;;;;;-144.99;100.00;52513.31;5006091;28;19950;-71
2022/12/20 08:49:37;;;;;;;;;;;;;;;-144.99;100.00;52529.63;4991770;28;19990;-71
2022/12/20 08:52:03;;;;;;;;;;;;;;;-144.99;100.00;52509.25;5006412;28;19940;-71
2022/12/20 08:54:30;;;;;;;;;;;;;;;-144.99;100.00;52533.69;4999496;28;19944;-71
2022/12/20 08:56:56;;;;;;;;;;;;;;;-144.99;100.00;52497.00;4991304;28;19976;-71
2022/12/20 08:59:23;;;;;;;;;;;;;;;-144.99;100.00;52537.78;4988412;28;20390;-71
2022/12/20 09:01:52;;;;;;;;;;;;;;;-144.99;100.00;52488.84;4991867;28;20155;-71
2022/12/20 09:04:18;;;;;;;;;;;;;;;-144.99;100.00;52513.31;4989015;28;19961;-71
2022/12/20 09:06:45;;;;;;;;;;;;;;;-144.99;100.00;52501.09;4993886;28;20002;-71
2022/12/20 09:09:12;;;;;;;;;;;;;;;-144.99;100.00;52515.34;4996850;28;19963;-70
2022/12/20 09:11:39;;;;;;;;;;;;;;;-144.99;100.00;52505.16;4989071;28;20345;-73
2022/12/20 09:14:06;;;;;;;;;;;;;;;-144.99;100.00;52517.41;4989071;28;19944;-71
2022/12/20 09:16:33;;;;;;;;;;;;;;;-144.99;100.00;52517.41;4989586;28;19945;-71
2022/12/20 09:19:02;;;;;;;;;;;;;;;-144.99;100.00;52509.25;5001540;28;19966;-71
2022/12/20 09:21:28;;;;;;;;;;;;;;;-144.99;100.00;52513.31;4995455;28;20024;-72
2022/12/20 09:23:56;;;;;;;;;;;;;;;-144.99;100.00;52480.72;4995363;28;19989;-71
2022/12/20 09:26:23;;;;;;;;;;;;;;;-144.99;100.00;52505.16;4975905;28;20218;-71
2022/12/20 09:28:50;;;;;;;;;;;;;;;-144.99;100.00;52539.81;4988798;28;20467;-71
2022/12/20 09:31:18;;;;;;;;;;;;;;;-144.99;100.00;52507.19;4988482;28;19992;-73
2022/12/20 09:33:45;;;;;;;;;;;;;;;-144.99;100.00;52507.19;4989821;28;19944;-72
2022/12/20 09:36:14;;;;;;;;;;;;;;;-144.99;100.00;52525.56;4988389;28;19995;-71
2022/12/20 09:38:41;;;;;;;;;;;;;;;-144.99;100.00;52521.47;5001546;28;19995;-71
2022/12/20 09:41:16;;;;;;;;;;;;;;;-144.99;100.00;52529.63;4988383;28;20000;-72
2022/12/20 09:43:43;;;;;;;;;;;;;;;-144.99;100.00;52523.50;4990662;28;19958;-70
2022/12/20 09:46:14;;;;;;;;;;;;;;;-144.99;100.00;52533.69;5003074;28;19951;-70
2022/12/20 09:48:42;;;;;;;;;;;;;;;-144.99;100.00;52541.84;4995854;28;19965;-70
2022/12/20 09:51:13;;;;;;;;;;;;;;;-144.99;100.00;52552.03;5002869;28;19945;-70
2022/12/20 09:53:49;;;;;;;;;;;;;;;-144.99;100.00;52513.31;4994155;28;20461;-70
2022/12/20 09:56:16;;;;;;;;;;;;;;;-144.99;100.00;52521.47;4992772;28;20199;-70
2022/12/20 09:58:51;;;;;;;;;;;;;;;-144.99;100.00;52525.56;4996536;28;19960;-70
2022/12/20 10:01:20;;;;;;;;;;;;;;;-144.99;100.00;52521.47;4992932;28;19934;-71
2022/12/20 10:03:47;;;;;;;;;;;;;;;-144.99;100.00;52501.09;4992937;28;20393;-70
2022/12/20 10:06:20;;;;;;;;;;;;;;;-144.99;100.00;52543.91;5005892;28;20432;-70
2022/12/20 10:08:52;;;;;;;;;;;;;;;-144.99;100.00;52566.31;4993671;28;19964;-70
2022/12/20 10:11:41;;;;;;;;;;;;;;;-144.99;100.00;52537.78;4995768;28;20044;-71
2022/12/20 10:14:13;;;;;;;;;;;;;;;-144.99;100.00;52513.31;4994186;28;20047;-71
2022/12/20 10:16:42;;;;;;;;;;;;;;;-144.99;100.00;52501.09;4992781;28;20012;-70
2022/12/20 10:19:17;;;;;;;;;;;;;;;-144.99;100.00;52521.47;5005292;28;19964;-71
2022/12/20 10:21:47;;;;;;;;;;;;;;;-144.99;100.00;52494.97;4992076;28;20018;-70
2022/12/20 10:24:18;;;;;;;;;;;;;;;-144.99;100.00;52513.31;5001797;28;19936;-71
2022/12/20 10:26:45;;;;;;;;;;;;;;;-144.99;100.00;52521.47;5022000;28;20332;-70
2022/12/20 10:29:12;;;;;;;;;;;;;;;-144.99;100.00;52513.31;4994477;28;19983;-71
2022/12/20 10:31:38;;;;;;;;;;;;;;;-144.99;100.00;52505.16;5002956;28;19945;-70
2022/12/20 10:34:06;;;;;;;;;;;;;;;-144.99;100.00;52513.31;4993969;28;20007;-70
2022/12/20 10:36:33;;;;;;;;;;;;;;;-144.99;100.00;52543.91;4991995;28;20374;-71
2022/12/20 10:39:01;;;;;;;;;;;;;;;-144.99;100.00;52523.50;4991370;28;20019;-71
2022/12/20 10:41:30;;;;;;;;;;;;;;;-144.99;100.00;52501.09;4992387;28;19946;-72
2022/12/20 10:44:00;;;;;;;;;;;;;;;-144.99;100.00;52484.78;4995175;28;20001;-71
2022/12/20 10:46:34;;;;;;;;;;;;;;;-144.99;100.00;52517.41;5011483;28;20354;-70
2022/12/20 10:49:20;;;;;;;;;;;;;;;-144.99;100.00;52488.84;4998409;28;20102;-71
2022/12/20 10:51:51;;;;;;;;;;;;;;;-144.99;100.00;52452.16;4996445;28;20386;-70
2022/12/20 10:54:21;;;;;;;;;;;;;;;-144.99;100.00;52513.31;4991470;28;20461;-71
2022/12/20 10:56:54;;;;;;;;;;;;;;;-144.99;100.00;52515.34;4993523;28;20312;-71
2022/12/20 10:59:27;;;;;;;;;;;;;;;-144.99;100.00;52521.47;4991002;28;19971;-71
2022/12/20 11:01:53;;;;;;;;;;;;;;;-144.99;100.00;52492.94;4991754;28;19940;-72
2022/12/20 11:04:25;;;;;;;;;;;;;;;-144.99;100.00;52492.94;4991653;28;20026;-71
2022/12/20 11:06:53;;;;;;;;;;;;;;;-144.99;100.00;52488.84;4991443;28;20315;-71
2022/12/20 11:09:26;;;;;;;;;;;;;;;-144.99;100.00;52490.91;4992077;28;19972;-72
2022/12/20 11:11:59;;;;;;;;;;;;;;;-144.99;100.00;52525.56;4983598;28;20047;-71
2022/12/20 11:14:25;;;;;;;;;;;;;;;-144.99;100.00;52529.63;5001171;28;20424;-73
2022/12/20 11:16:53;;;;;;;;;;;;;;;-144.99;100.00;52488.84;5003384;28;20371;-71
2022/12/20 11:19:31;;;;;;;;;;;;;;;-144.99;100.00;52509.25;4991390;28;20378;-72
2022/12/20 11:22:02;;;;;;;;;;;;;;;-144.99;100.00;52537.78;4991413;28;19950;-73
2022/12/20 11:24:33;;;;;;;;;;;;;;;-144.99;100.00;52484.78;4991686;28;19944;-72
2022/12/20 11:27:10;;;;;;;;;;;;;;;-144.99;100.00;52509.25;5003345;28;19948;-73
2022/12/20 11:29:45;;;;;;;;;;;;;;;-144.99;100.00;52525.56;5004944;28;19962;-72
2022/12/20 11:32:17;;;;;;;;;;;;;;;-144.99;100.00;52517.41;4991247;28;20367;-73
2022/12/20 11:34:48;;;;;;;;;;;;;;;-144.99;100.00;52545.94;4991589;28;19941;-72
2022/12/20 11:37:20;;;;;;;;;;;;;;;-144.99;100.00;52527.59;4990887;28;19952;-72
2022/12/20 11:39:55;;;;;;;;;;;;;;;-144.99;100.00;52529.63;4990695;28;20032;-73
2022/12/20 11:42:27;;;;;;;;;;;;;;;-144.99;100.00;52513.31;4990988;28;19988;-73
2022/12/20 11:45:00;;;;;;;;;;;;;;;-144.99;100.00;52509.25;4990876;28;19930;-73
2022/12/20 11:47:42;;;;;;;;;;;;;;;-144.99;100.00;52507.19;4996849;28;19954;-72
2022/12/20 11:50:19;;;;;;;;;;;;;;;-144.99;100.00;52501.09;4993121;28;20022;-73
2022/12/20 11:52:48;;;;;;;;;;;;;;;-144.99;100.00;52509.25;4990158;28;19964;-73
2022/12/20 11:55:20;;;;;;;;;;;;;;;-144.99;100.00;52501.09;4991284;28;19954;-72
2022/12/20 11:57:53;;;;;;;;;;;;;;;-144.99;100.00;52537.78;4990325;28;20052;-72
2022/12/20 12:00:21;;;;;;;;;;;;;;;-144.99;100.00;52527.59;4992471;28;20012;-72
2022/12/20 12:02:50;;;;;;;;;;;;;;;-144.99;100.00;52513.31;4992142;28;19926;-72
2022/12/20 12:05:19;;;;;;;;;;;;;;;-144.99;100.00;52515.34;4984743;28;20424;-72
2022/12/20 12:07:49;;;;;;;;;;;;;;;-144.99;100.00;52492.94;5009292;28;20019;-72
2022/12/20 12:10:17;;;;;;;;;;;;;;;-144.99;100.00;52513.31;4998243;28;20003;-73
2022/12/20 12:12:45;;;;;;;;;;;;;;;-144.99;100.00;52525.56;5008818;23;19965;-72
2022/12/20 12:15:18;;;;;;;;;;;;;;;-144.99;100.00;52554.09;5005974;28;19926;-73
2022/12/20 12:17:47;;;;;;;;;;;;;;;-144.99;100.00;52509.25;5008134;28;19968;-74
2022/12/20 12:20:25;;;;;;;;;;;;;;;-144.99;100.00;52515.34;5008238;28;19969;-73
2022/12/20 12:22:57;;;;;;;;;;;;;;;-144.99;100.00;52505.16;5007969;28;19998;-73
2022/12/20 12:25:24;;;;;;;;;;;;;;;-144.99;100.00;52556.13;5008835;28;19964;-72
2022/12/20 12:27:51;;;;;;;;;;;;;;;-144.99;100.00;52550.00;5016546;28;19914;-73
2022/12/20 12:30:19;;;;;;;;;;;;;;;-144.99;100.00;52484.78;5031497;28;19924;-74
2022/12/20 12:32:50;;;;;;;;;;;;;;;-144.99;100.00;52488.84;5006210;28;19980;-72
2022/12/20 12:35:30;;;;;;;;;;;;;;;-144.99;100.00;52574.47;4999196;28;19932;-71